createdAt,value
2023-04-04T00:00:59.085Z,0.50
2023-04-04T00:03:27.806Z,0.60
2023-04-04T00:05:56.618Z,0.50
2023-04-04T00:08:25.065Z,0.30
2023-04-04T00:10:59.364Z,0.70
2023-04-04T00:13:28.165Z,0.60
2023-04-04T00:15:58.959Z,0.40
2023-04-04T00:18:27.576Z,0.60
2023-04-04T00:20:56.008Z,0.70
2023-04-04T00:23:24.520Z,0.50
2023-04-04T00:25:53.390Z,0.50
2023-04-04T00:28:22.460Z,0.50
2023-04-04T00:30:50.779Z,0.50
2023-04-04T00:33:20.554Z,0.40
2023-04-04T00:35:50.511Z,0.33
2023-04-04T00:38:19.167Z,0.47
2023-04-04T00:40:50.686Z,0.50
2023-04-04T00:43:20.266Z,0.50
2023-04-04T00:45:48.979Z,0.50
2023-04-04T00:48:17.870Z,0.43
2023-04-04T00:50:47.668Z,0.50
2023-04-04T00:53:16.064Z,0.47
2023-04-04T00:55:44.677Z,0.50
2023-04-04T00:58:13.359Z,0.40
2023-04-04T01:00:42.286Z,0.60
2023-04-04T01:03:12.955Z,0.60
2023-04-04T01:05:42.801Z,0.47
2023-04-04T01:08:13.195Z,0.70
2023-04-04T01:10:43.117Z,0.50
2023-04-04T01:13:12.035Z,0.40
2023-04-04T01:15:41.413Z,0.60
2023-04-04T01:18:11.065Z,0.50
2023-04-04T01:20:48.479Z,0.53
2023-04-04T01:23:19.045Z,0.40
2023-04-04T01:25:50.871Z,0.60
2023-04-04T01:28:19.447Z,0.60
2023-04-04T01:30:47.836Z,0.40
2023-04-04T01:33:22.596Z,0.47
2023-04-04T01:36:03.328Z,0.43
2023-04-04T01:38:40.060Z,0.63
2023-04-04T01:41:12.239Z,0.60
2023-04-04T01:43:47.502Z,0.60
2023-04-04T01:46:18.705Z,0.60
2023-04-04T01:48:49.576Z,0.53
2023-04-04T01:51:23.913Z,0.57
2023-04-04T01:53:53.681Z,0.50
2023-04-04T01:56:23.498Z,0.43
2023-04-04T01:58:52.405Z,0.50
2023-04-04T02:01:21.468Z,0.50
2023-04-04T02:03:49.976Z,0.57
2023-04-04T02:06:18.337Z,0.60
2023-04-04T02:08:47.173Z,0.70
2023-04-04T02:11:16.278Z,0.73
2023-04-04T02:13:46.101Z,0.60
2023-04-04T02:16:17.484Z,0.70
2023-04-04T02:18:46.166Z,0.77
2023-04-04T02:21:14.532Z,0.70
2023-04-04T02:23:43.136Z,0.80
2023-04-04T02:26:11.596Z,0.57
2023-04-04T02:28:41.022Z,0.90
2023-04-04T02:31:13.071Z,1.00
2023-04-04T02:33:41.466Z,0.83
2023-04-04T02:36:12.633Z,0.80
2023-04-04T02:38:41.548Z,0.80
2023-04-04T02:41:10.688Z,0.70
2023-04-04T02:43:39.334Z,0.90
2023-04-04T02:48:42.738Z,0.83
2023-04-04T02:51:11.215Z,0.80
2023-04-04T02:53:39.806Z,1.00
2023-04-04T02:56:21.387Z,1.00
2023-04-04T02:58:49.795Z,0.87
2023-04-04T03:01:18.180Z,0.90
2023-04-04T03:03:48.157Z,0.77
2023-04-04T03:06:16.662Z,0.60
2023-04-04T03:08:45.128Z,0.70
2023-04-04T03:11:13.625Z,0.60
2023-04-04T03:13:42.209Z,0.90
2023-04-04T03:16:11.960Z,0.70
2023-04-04T03:18:49.727Z,0.73
2023-04-04T03:21:21.390Z,0.83
2023-04-04T03:23:51.459Z,0.80
2023-04-04T03:26:20.575Z,0.63
2023-04-04T03:28:48.937Z,0.83
2023-04-04T03:31:19.100Z,0.70
2023-04-04T03:33:47.685Z,0.60
2023-04-04T03:36:18.086Z,0.70
2023-04-04T03:38:50.269Z,0.80
2023-04-04T03:41:20.138Z,0.70
2023-04-04T03:43:48.531Z,0.70
2023-04-04T03:46:17.144Z,0.80
2023-04-04T03:48:46.916Z,0.70
2023-04-04T03:51:15.391Z,1.30
2023-04-04T03:53:47.296Z,0.70
2023-04-04T03:56:15.896Z,0.67
2023-04-04T03:58:44.368Z,0.67
2023-04-04T04:01:17.385Z,0.70
2023-04-04T04:03:45.920Z,0.80
2023-04-04T04:06:14.370Z,1.00
2023-04-04T04:08:42.714Z,0.87
2023-04-04T04:11:12.533Z,0.70
2023-04-04T04:13:40.899Z,0.90
2023-04-04T04:16:09.671Z,0.70
2023-04-04T04:18:38.239Z,0.80
2023-04-04T04:21:11.868Z,1.00
2023-04-04T04:23:43.554Z,0.80
2023-04-04T04:26:13.402Z,0.80
2023-04-04T04:28:42.289Z,0.70
2023-04-04T04:31:16.253Z,0.80
2023-04-04T04:33:49.079Z,0.70
2023-04-04T04:36:20.714Z,0.70
2023-04-04T04:38:55.771Z,0.60
2023-04-04T04:41:30.491Z,0.70
2023-04-04T04:43:59.134Z,0.70
2023-04-04T04:46:28.868Z,0.83
2023-04-04T04:48:57.500Z,0.80
2023-04-04T04:51:30.383Z,0.63
2023-04-04T04:54:00.273Z,0.60
2023-04-04T04:56:31.218Z,0.70
2023-04-04T04:59:09.248Z,0.87
2023-04-04T05:01:40.691Z,0.70
2023-04-04T05:04:09.185Z,0.70
2023-04-04T05:06:44.257Z,0.70
2023-04-04T05:09:14.597Z,0.70
2023-04-04T05:11:44.704Z,1.03
2023-04-04T05:14:14.515Z,0.80
2023-04-04T05:16:52.093Z,0.60
2023-04-04T05:19:20.714Z,0.80
2023-04-04T05:21:54.201Z,0.70
2023-04-04T05:24:39.967Z,0.80
2023-04-04T05:27:10.065Z,0.70
2023-04-04T05:29:44.278Z,0.80
2023-04-04T05:32:12.747Z,0.73
2023-04-04T05:34:43.616Z,0.67
2023-04-04T05:37:17.384Z,0.90
2023-04-04T05:39:49.457Z,1.00
2023-04-04T05:42:20.792Z,0.70
2023-04-04T05:44:53.286Z,0.70
2023-04-04T05:47:22.997Z,0.80
2023-04-04T05:49:51.980Z,0.90
2023-04-04T05:52:21.296Z,1.20
2023-04-04T05:54:51.335Z,0.90
2023-04-04T05:57:29.082Z,0.90
2023-04-04T05:59:59.830Z,0.80
2023-04-04T06:02:29.451Z,0.80
2023-04-04T06:05:02.979Z,0.77
2023-04-04T06:07:36.892Z,0.80
2023-04-04T06:10:05.733Z,0.60
2023-04-04T06:12:37.939Z,0.70
2023-04-04T06:15:10.709Z,0.80
2023-04-04T06:17:40.899Z,0.90
2023-04-04T06:20:10.589Z,0.97
2023-04-04T06:22:39.307Z,1.07
2023-04-04T06:25:10.582Z,0.90
2023-04-04T06:27:42.673Z,1.77
2023-04-04T06:30:12.311Z,1.20
2023-04-04T06:32:41.661Z,1.67
2023-04-04T06:35:13.105Z,3.50
2023-04-04T06:37:46.619Z,4.93
2023-04-04T06:40:18.412Z,6.60
2023-04-04T06:42:52.308Z,8.47
2023-04-04T06:45:23.815Z,8.10
2023-04-04T06:47:53.723Z,9.50
2023-04-04T06:50:23.498Z,6.97
2023-04-04T06:52:52.863Z,8.63
2023-04-04T06:55:21.336Z,8.30
2023-04-04T06:57:51.642Z,4.50
2023-04-04T07:00:20.684Z,2.70
2023-04-04T07:02:49.342Z,2.30
2023-04-04T07:05:19.035Z,1.20
2023-04-04T07:07:47.826Z,1.10
2023-04-04T07:10:16.377Z,0.83
2023-04-04T07:12:44.848Z,0.90
2023-04-04T07:15:14.882Z,1.00
2023-04-04T07:17:43.367Z,1.23
2023-04-04T07:20:12.480Z,1.20
2023-04-04T07:22:41.132Z,1.00
2023-04-04T07:25:12.244Z,1.20
2023-04-04T07:27:41.301Z,1.17
2023-04-04T07:30:10.674Z,1.20
2023-04-04T07:32:40.748Z,1.00
2023-04-04T07:35:09.811Z,1.30
2023-04-04T07:37:38.591Z,1.20
2023-04-04T07:40:09.637Z,0.90
2023-04-04T07:42:38.208Z,0.93
2023-04-04T07:45:07.251Z,1.00
2023-04-04T07:47:36.339Z,0.80
2023-04-04T07:50:07.003Z,0.90
2023-04-04T07:52:36.210Z,0.90
2023-04-04T07:55:05.989Z,0.80
2023-04-04T07:57:34.525Z,1.10
2023-04-04T08:00:04.385Z,1.07
2023-04-04T08:02:42.117Z,0.90
2023-04-04T08:05:12.373Z,0.80
2023-04-04T08:07:41.627Z,0.90
2023-04-04T08:10:11.519Z,1.00
2023-04-04T08:12:41.201Z,1.20
2023-04-04T08:15:10.736Z,1.20
2023-04-04T08:17:39.192Z,1.07
2023-04-04T08:20:08.702Z,1.20
2023-04-04T08:22:38.637Z,0.77
2023-04-04T08:25:07.533Z,0.90
2023-04-04T08:27:36.224Z,0.70
2023-04-04T08:30:05.232Z,1.00
2023-04-04T08:32:33.875Z,1.10
2023-04-04T08:35:02.278Z,1.00
2023-04-04T08:37:31.209Z,0.97
2023-04-04T08:40:01.822Z,0.93
2023-04-04T08:42:33.743Z,1.03
2023-04-04T08:45:05.145Z,0.90
2023-04-04T08:47:36.578Z,1.07
2023-04-04T08:50:06.746Z,0.87
2023-04-04T08:52:36.344Z,0.90
2023-04-04T08:55:07.169Z,0.80
2023-04-04T08:57:35.732Z,0.87
2023-04-04T09:00:06.388Z,1.00
2023-04-04T09:02:39.104Z,0.70
2023-04-04T09:05:10.143Z,0.90
2023-04-04T09:07:39.612Z,1.10
2023-04-04T09:10:12.552Z,0.87
2023-04-04T09:12:45.026Z,0.87
2023-04-04T09:15:13.804Z,0.90
2023-04-04T09:17:42.632Z,0.90
2023-04-04T09:20:37.340Z,0.80
2023-04-04T09:23:08.133Z,0.90
2023-04-04T09:25:38.395Z,0.80
2023-04-04T09:28:07.808Z,0.90
2023-04-04T09:30:36.835Z,1.00
2023-04-04T09:33:07.020Z,0.93
2023-04-04T09:35:38.466Z,0.80
2023-04-04T09:38:07.704Z,2.20
2023-04-04T09:40:38.412Z,0.70
2023-04-04T09:43:09.676Z,0.80
2023-04-04T09:45:41.198Z,0.97
2023-04-04T09:48:10.952Z,1.10
2023-04-04T09:50:46.985Z,1.00
2023-04-04T09:53:18.350Z,1.00
2023-04-04T09:55:53.114Z,1.00
2023-04-04T09:58:26.286Z,1.77
2023-04-04T10:00:57.052Z,1.30
2023-04-04T10:03:26.450Z,1.30
2023-04-04T10:06:01.304Z,1.00
2023-04-04T10:08:31.293Z,0.80
2023-04-04T10:11:11.271Z,1.00
2023-04-04T10:13:44.202Z,0.90
2023-04-04T10:16:12.986Z,0.80
2023-04-04T10:18:41.824Z,1.00
2023-04-04T10:21:15.727Z,0.90
2023-04-04T10:23:47.763Z,1.00
2023-04-04T10:26:17.747Z,0.90
2023-04-04T10:28:46.253Z,1.00
2023-04-04T10:31:23.730Z,0.90
2023-04-04T10:34:02.201Z,0.97
2023-04-04T10:36:37.757Z,0.80
2023-04-04T10:39:14.670Z,0.80
2023-04-04T10:41:47.228Z,0.80
2023-04-04T10:44:24.902Z,0.80
2023-04-04T10:46:55.625Z,0.80
2023-04-04T10:49:24.178Z,0.97
2023-04-04T10:51:56.876Z,0.80
2023-04-04T10:54:27.742Z,0.70
2023-04-04T10:57:02.280Z,0.73
2023-04-04T10:59:30.759Z,0.70
2023-04-04T11:02:01.248Z,1.17
2023-04-04T11:04:34.413Z,1.10
2023-04-04T11:07:17.440Z,0.90
2023-04-04T11:09:53.544Z,1.17
2023-04-04T11:12:28.008Z,1.10
2023-04-04T11:15:09.889Z,0.90
2023-04-04T11:18:08.098Z,0.73
2023-04-04T11:20:46.663Z,0.90
2023-04-04T11:23:22.073Z,0.80
2023-04-04T11:25:54.448Z,1.03
2023-04-04T11:28:46.354Z,0.97
2023-04-04T11:31:29.283Z,0.90
2023-04-04T11:34:05.312Z,0.70
2023-04-04T11:36:56.152Z,0.80
2023-04-04T11:39:28.767Z,0.90
2023-04-04T11:41:59.198Z,0.93
2023-04-04T11:44:30.730Z,0.77
2023-04-04T11:47:04.340Z,0.70
2023-04-04T11:49:36.389Z,0.80
2023-04-04T11:52:10.284Z,0.70
2023-04-04T11:54:40.755Z,0.80
2023-04-04T11:57:10.061Z,0.73
2023-04-04T11:59:43.892Z,0.70
2023-04-04T12:02:13.107Z,0.80
2023-04-04T12:04:44.825Z,0.70
2023-04-04T12:07:15.497Z,1.10
2023-04-04T12:09:43.937Z,0.80
2023-04-04T12:12:14.545Z,0.60
2023-04-04T12:14:44.882Z,0.80
2023-04-04T12:17:14.495Z,0.73
2023-04-04T12:19:44.570Z,0.80
2023-04-04T12:22:13.162Z,0.70
2023-04-04T12:24:41.575Z,1.00
2023-04-04T12:27:10.167Z,0.60
2023-04-04T12:29:38.699Z,0.60
2023-04-04T12:32:10.831Z,0.87
2023-04-04T12:34:48.650Z,0.70
2023-04-04T12:37:19.753Z,0.77
2023-04-04T12:39:50.186Z,0.70
2023-04-04T12:42:22.795Z,0.60
2023-04-04T12:44:52.981Z,0.93
2023-04-04T12:47:26.439Z,0.80
2023-04-04T12:49:56.058Z,0.77
2023-04-04T12:52:29.851Z,0.87
2023-04-04T12:55:07.992Z,0.70
2023-04-04T12:57:37.567Z,0.80
2023-04-04T13:00:09.097Z,0.80
2023-04-04T13:02:40.956Z,0.70
2023-04-04T13:05:11.349Z,0.90
2023-04-04T13:07:43.799Z,0.60
2023-04-04T13:10:16.372Z,0.90
2023-04-04T13:12:58.994Z,0.90
2023-04-04T13:15:51.803Z,0.70
2023-04-04T13:18:23.892Z,0.80
2023-04-04T13:20:52.859Z,0.50
2023-04-04T13:23:23.693Z,1.00
2023-04-04T13:25:52.280Z,0.63
2023-04-04T13:28:20.614Z,0.73
2023-04-04T13:30:50.131Z,1.10
2023-04-04T13:33:18.838Z,0.67
2023-04-04T13:35:48.667Z,0.87
2023-04-04T13:38:18.847Z,0.90
2023-04-04T13:40:47.282Z,1.00
2023-04-04T13:43:16.279Z,0.83
2023-04-04T13:45:45.262Z,0.83
2023-04-04T13:48:14.372Z,0.63
2023-04-04T13:50:44.704Z,0.70
2023-04-04T13:53:14.771Z,0.80
2023-04-04T13:56:01.354Z,0.60
2023-04-04T13:58:31.928Z,0.70
2023-04-04T14:01:03.334Z,1.10
2023-04-04T14:03:32.144Z,0.63
2023-04-04T14:06:09.272Z,0.60
2023-04-04T14:08:40.770Z,1.00
2023-04-04T14:11:09.241Z,0.80
2023-04-04T14:13:38.080Z,0.77
2023-04-04T14:16:09.405Z,0.80
2023-04-04T14:18:38.252Z,0.70
2023-04-04T14:21:07.425Z,1.10
2023-04-04T14:23:36.012Z,0.80
2023-04-04T14:26:05.952Z,0.70
2023-04-04T14:28:34.333Z,0.90
2023-04-04T14:31:02.800Z,1.00
2023-04-04T14:33:31.394Z,0.90
2023-04-04T14:35:59.768Z,0.80
2023-04-04T14:38:28.220Z,1.30
2023-04-04T14:40:56.660Z,1.00
2023-04-04T14:43:26.466Z,0.70
2023-04-04T14:45:55.062Z,0.90
2023-04-04T14:48:23.489Z,0.80
2023-04-04T14:50:53.767Z,0.77
2023-04-04T14:53:22.898Z,0.80
2023-04-04T14:55:52.387Z,0.70
2023-04-04T14:58:21.113Z,0.60
2023-04-04T15:00:51.074Z,1.00
2023-04-04T15:03:19.642Z,0.70
2023-04-04T15:05:48.090Z,0.63
2023-04-04T15:08:16.521Z,0.67
2023-04-04T15:10:44.955Z,0.90
2023-04-04T15:13:13.567Z,0.70
2023-04-04T15:15:43.004Z,0.90
2023-04-04T15:18:12.841Z,0.80
2023-04-04T15:20:42.108Z,0.97
2023-04-04T15:23:10.938Z,0.73
2023-04-04T15:25:39.233Z,0.70
2023-04-04T15:28:07.667Z,0.70
2023-04-04T15:30:36.289Z,0.80
2023-04-04T15:33:06.392Z,0.77
2023-04-04T15:35:37.517Z,0.70
2023-04-04T15:38:07.160Z,0.97
2023-04-04T15:40:35.563Z,0.70
2023-04-04T15:43:03.960Z,1.10
2023-04-04T15:45:32.446Z,0.80
2023-04-04T15:48:00.950Z,0.70
2023-04-04T15:50:30.244Z,0.70
2023-04-04T15:52:59.987Z,1.00
2023-04-04T15:55:28.600Z,0.97
2023-04-04T15:57:57.006Z,0.90
2023-04-04T16:00:29.155Z,0.90
2023-04-04T16:02:59.035Z,0.90
2023-04-04T16:05:28.512Z,0.70
2023-04-04T16:07:56.958Z,0.70
2023-04-04T16:10:26.728Z,0.70
2023-04-04T16:12:55.067Z,1.00
2023-04-04T16:15:23.821Z,0.80
2023-04-04T16:17:53.881Z,0.80
2023-04-04T16:20:22.892Z,0.80
2023-04-04T16:22:51.597Z,0.90
2023-04-04T16:25:21.269Z,0.73
2023-04-04T16:27:51.064Z,0.87
2023-04-04T16:30:19.552Z,0.90
2023-04-04T16:32:47.992Z,0.90
2023-04-04T16:35:16.719Z,0.70
2023-04-04T16:37:45.030Z,0.87
2023-04-04T16:40:15.629Z,0.70
2023-04-04T16:42:44.070Z,0.87
2023-04-04T16:45:14.211Z,0.60
2023-04-04T16:47:42.626Z,0.70
2023-04-04T16:50:11.994Z,0.63
2023-04-04T16:52:40.456Z,0.77
2023-04-04T16:55:10.444Z,0.70
2023-04-04T16:57:38.936Z,1.00
2023-04-04T17:00:10.145Z,1.43
2023-04-04T17:02:45.755Z,0.83
2023-04-04T17:05:15.180Z,0.90
2023-04-04T17:07:43.582Z,0.90
2023-04-04T17:10:12.569Z,0.73
2023-04-04T17:12:41.004Z,0.73
2023-04-04T17:15:10.339Z,0.70
2023-04-04T17:17:40.586Z,0.80
2023-04-04T17:20:17.720Z,0.90
2023-04-04T17:22:47.664Z,1.00
2023-04-04T17:25:16.020Z,0.80
2023-04-04T17:27:45.432Z,0.70
2023-04-04T17:30:14.727Z,0.77
2023-04-04T17:32:44.666Z,0.77
2023-04-04T17:35:13.074Z,1.13
2023-04-04T17:37:41.852Z,0.60
2023-04-04T17:40:11.001Z,0.90
2023-04-04T17:42:39.325Z,0.73
2023-04-04T17:45:09.649Z,0.70
2023-04-04T17:47:38.050Z,0.70
2023-04-04T17:50:10.314Z,0.73
2023-04-04T17:52:39.047Z,0.80
2023-04-04T17:55:08.804Z,0.67
2023-04-04T17:57:37.160Z,0.60
2023-04-04T18:00:06.357Z,0.70
2023-04-04T18:02:36.398Z,0.90
2023-04-04T18:05:05.413Z,0.70
2023-04-04T18:07:35.298Z,0.70
2023-04-04T18:10:03.727Z,0.70
2023-04-04T18:12:35.279Z,0.60
2023-04-04T18:15:04.911Z,0.70
2023-04-04T18:17:33.574Z,0.50
2023-04-04T18:20:04.465Z,0.80
2023-04-04T18:22:35.945Z,0.80
2023-04-04T18:25:04.541Z,0.80
2023-04-04T18:27:32.910Z,0.70
2023-04-04T18:30:01.320Z,0.80
2023-04-04T18:32:31.383Z,0.80
2023-04-04T18:35:02.056Z,0.93
2023-04-04T18:37:31.071Z,1.00
2023-04-04T18:40:01.018Z,0.90
2023-04-04T18:42:29.528Z,0.80
2023-04-04T18:44:57.943Z,0.73
2023-04-04T18:47:27.333Z,0.90
2023-04-04T18:49:55.737Z,0.87
2023-04-04T18:52:24.241Z,1.10
2023-04-04T18:54:52.583Z,1.00
2023-04-04T18:57:22.428Z,0.93
2023-04-04T18:59:50.846Z,0.80
2023-04-04T19:02:19.415Z,1.00
2023-04-04T19:04:48.990Z,0.90
2023-04-04T19:07:21.989Z,0.77
2023-04-04T19:09:51.528Z,0.83
2023-04-04T19:12:19.869Z,1.00
2023-04-04T19:14:49.694Z,0.70
2023-04-04T19:17:18.301Z,0.80
2023-04-04T19:19:47.461Z,0.90
2023-04-04T19:22:15.988Z,0.90
2023-04-04T19:24:44.390Z,1.00
2023-04-04T19:27:13.040Z,0.80
2023-04-04T19:29:41.664Z,0.90
2023-04-04T19:32:15.105Z,0.90
2023-04-04T19:34:44.300Z,1.50
2023-04-04T19:37:12.975Z,1.10
2023-04-04T19:39:43.873Z,1.60
2023-04-04T19:42:12.407Z,1.17
2023-04-04T19:44:41.687Z,1.20
2023-04-04T19:47:13.404Z,1.40
2023-04-04T19:49:42.351Z,1.70
2023-04-04T19:52:10.891Z,1.20
2023-04-04T19:54:42.890Z,1.07
2023-04-04T19:57:19.661Z,0.90
2023-04-04T20:00:13.559Z,0.73
2023-04-04T20:02:58.183Z,0.70
2023-04-04T20:05:55.423Z,0.93
2023-04-04T20:08:23.854Z,1.13
2023-04-04T20:10:57.430Z,1.00
2023-04-04T20:13:25.915Z,1.10
2023-04-04T20:16:01.729Z,1.10
2023-04-04T20:18:33.307Z,0.80
2023-04-04T20:21:08.448Z,0.87
2023-04-04T20:23:48.687Z,0.90
2023-04-04T20:26:51.324Z,0.73
2023-04-04T20:29:21.824Z,1.10
2023-04-04T20:31:52.286Z,0.73
2023-04-04T20:34:42.913Z,0.70
2023-04-04T20:37:14.150Z,1.00
2023-04-04T20:39:48.808Z,0.90
2023-04-04T20:42:40.232Z,0.80
2023-04-04T20:45:39.075Z,0.80
2023-04-04T20:48:08.204Z,0.80
2023-04-04T20:50:48.026Z,0.80
2023-04-04T20:53:20.415Z,0.80
2023-04-04T20:55:50.720Z,0.83
2023-04-04T20:58:28.202Z,0.90
2023-04-04T21:00:58.217Z,0.73
2023-04-04T21:03:36.788Z,0.70
2023-04-04T21:06:15.346Z,0.77
2023-04-04T21:08:47.315Z,0.80
2023-04-04T21:11:24.286Z,0.70
2023-04-04T21:13:52.777Z,1.03
2023-04-04T21:16:25.769Z,0.90
2023-04-04T21:18:59.079Z,0.80
2023-04-04T21:21:29.887Z,0.70
2023-04-04T21:24:00.053Z,1.10
2023-04-04T21:26:32.032Z,0.90
2023-04-04T21:29:03.723Z,0.80
2023-04-04T21:31:37.377Z,1.30
2023-04-04T21:34:14.361Z,0.83
2023-04-04T21:36:44.781Z,0.90
2023-04-04T21:39:14.533Z,0.87
2023-04-04T21:41:45.153Z,1.63
2023-04-04T21:44:15.160Z,3.07
2023-04-04T21:46:43.658Z,1.40
2023-04-04T21:49:12.368Z,1.37
2023-04-04T21:51:40.753Z,1.60
2023-04-04T21:54:10.949Z,1.20
2023-04-04T21:56:39.440Z,1.40
2023-04-04T21:59:10.254Z,0.80
2023-04-04T22:01:40.867Z,1.40
2023-04-04T22:04:09.553Z,1.33
2023-04-04T22:06:37.952Z,1.73
2023-04-04T22:09:06.671Z,1.10
2023-04-04T22:11:42.929Z,1.00
2023-04-04T22:14:17.820Z,1.10
2023-04-04T22:16:46.960Z,1.00
2023-04-04T22:19:15.502Z,0.90
2023-04-04T22:21:48.036Z,1.20
2023-04-04T22:24:18.298Z,1.20
2023-04-04T22:26:50.703Z,1.00
2023-04-04T22:29:19.247Z,1.00
2023-04-04T22:31:48.589Z,0.90
2023-04-04T22:34:17.094Z,0.90
2023-04-04T22:36:45.460Z,1.03
2023-04-04T22:39:16.370Z,0.80
2023-04-04T22:41:45.692Z,0.90
2023-04-04T22:44:15.640Z,0.90
2023-04-04T22:46:44.047Z,0.80
2023-04-04T22:49:13.617Z,1.10
2023-04-04T22:51:45.593Z,0.90
2023-04-04T22:54:16.738Z,1.20
2023-04-04T22:56:45.991Z,0.80
2023-04-04T22:59:15.946Z,1.00
2023-04-04T23:01:44.689Z,1.30
2023-04-04T23:04:13.554Z,1.07
2023-04-04T23:06:45.089Z,1.10
2023-04-04T23:09:13.780Z,1.07
2023-04-04T23:11:42.086Z,0.90
2023-04-04T23:14:15.308Z,0.90
2023-04-04T23:16:45.220Z,1.10
2023-04-04T23:19:13.990Z,0.90
2023-04-04T23:21:42.482Z,1.10
2023-04-04T23:24:10.954Z,1.10
2023-04-04T23:26:39.326Z,1.00
2023-04-04T23:29:07.711Z,0.80
2023-04-04T23:31:36.553Z,1.20
2023-04-04T23:34:06.484Z,1.03
2023-04-04T23:36:34.857Z,1.00
2023-04-04T23:39:03.728Z,0.90
2023-04-04T23:41:32.347Z,1.20
2023-04-04T23:44:00.658Z,0.93
2023-04-04T23:46:30.546Z,0.87
2023-04-04T23:48:58.842Z,1.13
2023-04-04T23:51:30.527Z,1.20
2023-04-04T23:53:58.981Z,1.70
2023-04-04T23:56:27.335Z,1.80
2023-04-04T23:58:55.735Z,1.50
